sensor_id;sensor_type;location;lat;lon;timestamp;temperature;humidity
8105;DHT22;4095;48.942;9.104;2023-07-13T00:01:50;22.80;99.00
8105;DHT22;4095;48.942;9.104;2023-07-13T00:04:18;22.70;99.00
8105;DHT22;4095;48.942;9.104;2023-07-13T00:06:45;22.70;98.80
8105;DHT22;4095;48.942;9.104;2023-07-13T00:09:16;22.70;98.70
8105;DHT22;4095;48.942;9.104;2023-07-13T00:11:42;22.70;98.60
8105;DHT22;4095;48.942;9.104;2023-07-13T00:14:09;22.70;98.20
8105;DHT22;4095;48.942;9.104;2023-07-13T00:16:37;22.60;98.40
8105;DHT22;4095;48.942;9.104;2023-07-13T00:19:04;22.60;98.10
8105;DHT22;4095;48.942;9.104;2023-07-13T00:21:31;22.60;98.10
8105;DHT22;4095;48.942;9.104;2023-07-13T00:24:02;22.50;98.00
8105;DHT22;4095;48.942;9.104;2023-07-13T00:26:28;22.50;97.90
8105;DHT22;4095;48.942;9.104;2023-07-13T00:28:54;22.50;97.50
8105;DHT22;4095;48.942;9.104;2023-07-13T00:31:19;22.50;97.80
8105;DHT22;4095;48.942;9.104;2023-07-13T00:33:45;22.50;97.50
8105;DHT22;4095;48.942;9.104;2023-07-13T00:36:11;22.50;97.40
8105;DHT22;4095;48.942;9.104;2023-07-13T00:38:37;22.50;97.40
8105;DHT22;4095;48.942;9.104;2023-07-13T00:41:03;22.40;97.30
8105;DHT22;4095;48.942;9.104;2023-07-13T00:43:30;22.40;97.60
8105;DHT22;4095;48.942;9.104;2023-07-13T00:48:32;22.40;97.30
8105;DHT22;4095;48.942;9.104;2023-07-13T00:51:01;22.40;97.80
8105;DHT22;4095;48.942;9.104;2023-07-13T00:53:28;22.40;97.50
8105;DHT22;4095;48.942;9.104;2023-07-13T00:55:56;22.30;97.60
8105;DHT22;4095;48.942;9.104;2023-07-13T00:58:23;22.30;97.50
8105;DHT22;4095;48.942;9.104;2023-07-13T01:00:51;22.30;97.60
8105;DHT22;4095;48.942;9.104;2023-07-13T01:03:17;22.20;97.40
8105;DHT22;4095;48.942;9.104;2023-07-13T01:05:43;22.20;97.90
8105;DHT22;4095;48.942;9.104;2023-07-13T01:08:09;22.10;97.90
8105;DHT22;4095;48.942;9.104;2023-07-13T01:10:34;22.10;97.80
8105;DHT22;4095;48.942;9.104;2023-07-13T01:13:05;22.10;98.10
8105;DHT22;4095;48.942;9.104;2023-07-13T01:15:43;22.10;98.20
8105;DHT22;4095;48.942;9.104;2023-07-13T01:18:20;22.00;98.20
8105;DHT22;4095;48.942;9.104;2023-07-13T01:21:03;21.90;98.30
8105;DHT22;4095;48.942;9.104;2023-07-13T01:23:31;21.90;98.30
8105;DHT22;4095;48.942;9.104;2023-07-13T01:25:57;21.80;98.40
8105;DHT22;4095;48.942;9.104;2023-07-13T01:28:24;21.80;98.50
8105;DHT22;4095;48.942;9.104;2023-07-13T01:30:52;21.80;98.70
8105;DHT22;4095;48.942;9.104;2023-07-13T01:33:18;21.70;98.70
8105;DHT22;4095;48.942;9.104;2023-07-13T01:35:47;21.70;98.70
8105;DHT22;4095;48.942;9.104;2023-07-13T01:38:20;21.70;98.80
8105;DHT22;4095;48.942;9.104;2023-07-13T01:40:46;21.60;98.80
8105;DHT22;4095;48.942;9.104;2023-07-13T01:43:12;21.60;99.00
8105;DHT22;4095;48.942;9.104;2023-07-13T01:45:38;21.50;99.00
8105;DHT22;4095;48.942;9.104;2023-07-13T01:48:04;21.50;98.70
8105;DHT22;4095;48.942;9.104;2023-07-13T01:50:32;21.50;98.70
8105;DHT22;4095;48.942;9.104;2023-07-13T01:52:58;21.40;98.70
8105;DHT22;4095;48.942;9.104;2023-07-13T01:55:23;21.40;98.80
8105;DHT22;4095;48.942;9.104;2023-07-13T01:57:49;21.40;99.00
8105;DHT22;4095;48.942;9.104;2023-07-13T02:00:15;21.40;98.90
8105;DHT22;4095;48.942;9.104;2023-07-13T02:02:41;21.30;99.10
8105;DHT22;4095;48.942;9.104;2023-07-13T02:05:07;21.30;98.90
8105;DHT22;4095;48.942;9.104;2023-07-13T02:07:33;21.30;99.20
8105;DHT22;4095;48.942;9.104;2023-07-13T02:09:58;21.30;98.90
8105;DHT22;4095;48.942;9.104;2023-07-13T02:12:24;21.20;98.80
8105;DHT22;4095;48.942;9.104;2023-07-13T02:14:49;21.20;98.70
8105;DHT22;4095;48.942;9.104;2023-07-13T02:17:15;21.20;98.90
8105;DHT22;4095;48.942;9.104;2023-07-13T02:19:41;21.20;98.80
8105;DHT22;4095;48.942;9.104;2023-07-13T02:22:06;21.20;98.90
8105;DHT22;4095;48.942;9.104;2023-07-13T02:24:32;21.20;98.80
8105;DHT22;4095;48.942;9.104;2023-07-13T02:26:58;21.10;98.90
8105;DHT22;4095;48.942;9.104;2023-07-13T02:29:23;21.10;99.10
8105;DHT22;4095;48.942;9.104;2023-07-13T02:31:49;21.00;99.00
8105;DHT22;4095;48.942;9.104;2023-07-13T02:34:14;21.00;99.50
8105;DHT22;4095;48.942;9.104;2023-07-13T02:36:40;21.00;99.10
8105;DHT22;4095;48.942;9.104;2023-07-13T02:39:06;20.90;99.60
8105;DHT22;4095;48.942;9.104;2023-07-13T02:41:32;20.90;99.60
8105;DHT22;4095;48.942;9.104;2023-07-13T02:43:58;20.80;99.00
8105;DHT22;4095;48.942;9.104;2023-07-13T02:46:33;20.80;99.10
8105;DHT22;4095;48.942;9.104;2023-07-13T02:48:59;20.70;99.50
8105;DHT22;4095;48.942;9.104;2023-07-13T02:51:25;20.70;99.70
8105;DHT22;4095;48.942;9.104;2023-07-13T02:53:50;20.70;99.90
8105;DHT22;4095;48.942;9.104;2023-07-13T02:56:16;20.60;99.90
8105;DHT22;4095;48.942;9.104;2023-07-13T02:58:42;20.50;99.90
8105;DHT22;4095;48.942;9.104;2023-07-13T03:01:09;20.40;99.90
8105;DHT22;4095;48.942;9.104;2023-07-13T03:03:35;20.40;99.90
8105;DHT22;4095;48.942;9.104;2023-07-13T03:06:02;20.30;99.90
8105;DHT22;4095;48.942;9.104;2023-07-13T03:08:29;20.20;99.90
8105;DHT22;4095;48.942;9.104;2023-07-13T03:11:02;20.20;99.90
8105;DHT22;4095;48.942;9.104;2023-07-13T03:13:28;20.20;99.90
8105;DHT22;4095;48.942;9.104;2023-07-13T03:15:54;20.10;99.90
8105;DHT22;4095;48.942;9.104;2023-07-13T03:18:19;20.10;99.90
8105;DHT22;4095;48.942;9.104;2023-07-13T03:20:45;20.10;99.90
8105;DHT22;4095;48.942;9.104;2023-07-13T03:23:11;20.10;99.90
8105;DHT22;4095;48.942;9.104;2023-07-13T03:25:36;20.00;99.90
8105;DHT22;4095;48.942;9.104;2023-07-13T03:28:02;20.00;99.90
8105;DHT22;4095;48.942;9.104;2023-07-13T03:30:27;20.00;99.90
8105;DHT22;4095;48.942;9.104;2023-07-13T03:32:53;20.00;99.90
8105;DHT22;4095;48.942;9.104;2023-07-13T03:35:19;20.00;99.90
8105;DHT22;4095;48.942;9.104;2023-07-13T03:37:44;20.00;99.90
8105;DHT22;4095;48.942;9.104;2023-07-13T03:40:10;20.00;99.90
8105;DHT22;4095;48.942;9.104;2023-07-13T03:42:36;20.00;99.90
8105;DHT22;4095;48.942;9.104;2023-07-13T03:45:01;19.90;99.90
8105;DHT22;4095;48.942;9.104;2023-07-13T03:47:27;19.90;99.90
8105;DHT22;4095;48.942;9.104;2023-07-13T03:49:53;19.80;99.90
8105;DHT22;4095;48.942;9.104;2023-07-13T03:52:18;19.70;99.90
8105;DHT22;4095;48.942;9.104;2023-07-13T03:54:44;19.70;99.90
8105;DHT22;4095;48.942;9.104;2023-07-13T03:57:10;19.70;99.90
8105;DHT22;4095;48.942;9.104;2023-07-13T03:59:36;19.70;99.90
8105;DHT22;4095;48.942;9.104;2023-07-13T04:02:02;19.70;99.90
8105;DHT22;4095;48.942;9.104;2023-07-13T04:04:29;19.70;99.90
8105;DHT22;4095;48.942;9.104;2023-07-13T04:06:57;19.70;99.90
8105;DHT22;4095;48.942;9.104;2023-07-13T04:09:24;19.70;99.90
8105;DHT22;4095;48.942;9.104;2023-07-13T04:11:50;19.70;99.90
8105;DHT22;4095;48.942;9.104;2023-07-13T04:14:15;19.70;99.90
8105;DHT22;4095;48.942;9.104;2023-07-13T04:16:42;19.80;99.90
8105;DHT22;4095;48.942;9.104;2023-07-13T04:19:08;19.80;99.90
8105;DHT22;4095;48.942;9.104;2023-07-13T04:21:36;19.90;99.90
8105;DHT22;4095;48.942;9.104;2023-07-13T04:24:02;19.80;99.90
8105;DHT22;4095;48.942;9.104;2023-07-13T04:26:28;19.90;99.90
8105;DHT22;4095;48.942;9.104;2023-07-13T04:28:55;19.90;99.90
8105;DHT22;4095;48.942;9.104;2023-07-13T04:31:21;19.90;99.90
8105;DHT22;4095;48.942;9.104;2023-07-13T04:33:47;19.90;99.90
8105;DHT22;4095;48.942;9.104;2023-07-13T04:36:14;19.90;99.90
8105;DHT22;4095;48.942;9.104;2023-07-13T04:38:40;19.90;99.90
8105;DHT22;4095;48.942;9.104;2023-07-13T04:41:07;19.90;99.90
8105;DHT22;4095;48.942;9.104;2023-07-13T04:43:33;19.90;99.90
8105;DHT22;4095;48.942;9.104;2023-07-13T04:46:12;19.90;99.90
8105;DHT22;4095;48.942;9.104;2023-07-13T04:48:38;19.90;99.90
8105;DHT22;4095;48.942;9.104;2023-07-13T04:51:04;19.90;99.90
8105;DHT22;4095;48.942;9.104;2023-07-13T04:53:30;19.80;99.90
8105;DHT22;4095;48.942;9.104;2023-07-13T04:55:56;19.80;99.90
8105;DHT22;4095;48.942;9.104;2023-07-13T04:58:22;19.90;99.90
8105;DHT22;4095;48.942;9.104;2023-07-13T05:00:48;19.90;99.90
8105;DHT22;4095;48.942;9.104;2023-07-13T05:03:14;19.80;99.90
8105;DHT22;4095;48.942;9.104;2023-07-13T05:05:39;19.90;99.90
8105;DHT22;4095;48.942;9.104;2023-07-13T05:08:05;20.00;99.90
8105;DHT22;4095;48.942;9.104;2023-07-13T05:10:30;20.00;99.90
8105;DHT22;4095;48.942;9.104;2023-07-13T05:12:56;20.10;99.90
8105;DHT22;4095;48.942;9.104;2023-07-13T05:15:22;20.20;99.90
8105;DHT22;4095;48.942;9.104;2023-07-13T05:17:49;20.30;99.90
8105;DHT22;4095;48.942;9.104;2023-07-13T05:20:15;20.40;99.90
8105;DHT22;4095;48.942;9.104;2023-07-13T05:22:42;20.40;99.90
8105;DHT22;4095;48.942;9.104;2023-07-13T05:25:08;20.50;99.90
8105;DHT22;4095;48.942;9.104;2023-07-13T05:27:34;20.50;99.90
8105;DHT22;4095;48.942;9.104;2023-07-13T05:30:01;20.50;99.90
8105;DHT22;4095;48.942;9.104;2023-07-13T05:32:26;20.60;99.90
8105;DHT22;4095;48.942;9.104;2023-07-13T05:34:52;20.60;99.90
8105;DHT22;4095;48.942;9.104;2023-07-13T05:37:18;20.60;99.90
8105;DHT22;4095;48.942;9.104;2023-07-13T05:39:43;20.60;99.90
8105;DHT22;4095;48.942;9.104;2023-07-13T05:42:09;20.60;99.90
8105;DHT22;4095;48.942;9.104;2023-07-13T05:44:34;20.60;99.90
8105;DHT22;4095;48.942;9.104;2023-07-13T05:47:00;20.60;99.90
8105;DHT22;4095;48.942;9.104;2023-07-13T05:49:26;20.70;99.90
8105;DHT22;4095;48.942;9.104;2023-07-13T05:51:51;20.60;99.90
8105;DHT22;4095;48.942;9.104;2023-07-13T05:54:17;20.70;99.90
8105;DHT22;4095;48.942;9.104;2023-07-13T05:56:42;20.70;99.90
8105;DHT22;4095;48.942;9.104;2023-07-13T05:59:08;20.80;99.90
8105;DHT22;4095;48.942;9.104;2023-07-13T06:01:34;20.90;99.90
8105;DHT22;4095;48.942;9.104;2023-07-13T06:03:59;21.00;99.90
8105;DHT22;4095;48.942;9.104;2023-07-13T06:06:25;21.00;99.90
8105;DHT22;4095;48.942;9.104;2023-07-13T06:08:50;21.10;99.90
8105;DHT22;4095;48.942;9.104;2023-07-13T06:11:18;21.10;99.90
8105;DHT22;4095;48.942;9.104;2023-07-13T06:13:45;21.10;99.90
8105;DHT22;4095;48.942;9.104;2023-07-13T06:16:11;21.20;99.90
8105;DHT22;4095;48.942;9.104;2023-07-13T06:18:37;21.20;99.90
8105;DHT22;4095;48.942;9.104;2023-07-13T06:21:12;21.40;99.90
8105;DHT22;4095;48.942;9.104;2023-07-13T06:23:38;21.40;99.90
8105;DHT22;4095;48.942;9.104;2023-07-13T06:26:05;21.40;99.90
8105;DHT22;4095;48.942;9.104;2023-07-13T06:28:31;21.50;99.90
8105;DHT22;4095;48.942;9.104;2023-07-13T06:30:58;21.40;99.90
8105;DHT22;4095;48.942;9.104;2023-07-13T06:33:24;21.50;99.90
8105;DHT22;4095;48.942;9.104;2023-07-13T06:35:50;21.50;99.80
8105;DHT22;4095;48.942;9.104;2023-07-13T06:38:15;21.60;99.70
8105;DHT22;4095;48.942;9.104;2023-07-13T06:40:41;21.70;99.80
8105;DHT22;4095;48.942;9.104;2023-07-13T06:43:07;21.90;99.60
8105;DHT22;4095;48.942;9.104;2023-07-13T06:45:40;22.00;98.80
8105;DHT22;4095;48.942;9.104;2023-07-13T06:48:07;22.30;99.10
8105;DHT22;4095;48.942;9.104;2023-07-13T06:50:33;22.40;98.10
8105;DHT22;4095;48.942;9.104;2023-07-13T06:52:59;22.50;97.60
8105;DHT22;4095;48.942;9.104;2023-07-13T06:55:25;22.50;96.30
8105;DHT22;4095;48.942;9.104;2023-07-13T06:57:51;22.40;96.10
8105;DHT22;4095;48.942;9.104;2023-07-13T07:00:17;22.40;96.30
8105;DHT22;4095;48.942;9.104;2023-07-13T07:02:42;22.50;95.30
8105;DHT22;4095;48.942;9.104;2023-07-13T07:05:08;22.50;95.80
8105;DHT22;4095;48.942;9.104;2023-07-13T07:07:34;22.50;95.60
8105;DHT22;4095;48.942;9.104;2023-07-13T07:10:00;22.60;95.90
8105;DHT22;4095;48.942;9.104;2023-07-13T07:12:25;22.60;95.30
8105;DHT22;4095;48.942;9.104;2023-07-13T07:14:51;22.70;95.80
8105;DHT22;4095;48.942;9.104;2023-07-13T07:17:16;22.80;95.50
8105;DHT22;4095;48.942;9.104;2023-07-13T07:19:42;22.90;95.00
8105;DHT22;4095;48.942;9.104;2023-07-13T07:22:07;23.10;95.30
8105;DHT22;4095;48.942;9.104;2023-07-13T07:24:33;23.20;94.50
8105;DHT22;4095;48.942;9.104;2023-07-13T07:26:59;23.20;93.40
8105;DHT22;4095;48.942;9.104;2023-07-13T07:29:24;23.30;93.60
8105;DHT22;4095;48.942;9.104;2023-07-13T07:31:52;23.40;94.20
8105;DHT22;4095;48.942;9.104;2023-07-13T07:34:18;23.40;91.90
8105;DHT22;4095;48.942;9.104;2023-07-13T07:36:43;23.40;91.30
8105;DHT22;4095;48.942;9.104;2023-07-13T07:39:09;23.50;92.00
8105;DHT22;4095;48.942;9.104;2023-07-13T07:41:34;23.60;92.40
8105;DHT22;4095;48.942;9.104;2023-07-13T07:44:00;23.70;92.30
8105;DHT22;4095;48.942;9.104;2023-07-13T07:46:26;23.80;92.10
8105;DHT22;4095;48.942;9.104;2023-07-13T07:48:51;23.80;92.60
8105;DHT22;4095;48.942;9.104;2023-07-13T07:51:17;23.90;92.30
8105;DHT22;4095;48.942;9.104;2023-07-13T07:53:42;24.00;92.90
8105;DHT22;4095;48.942;9.104;2023-07-13T07:56:08;24.10;92.30
8105;DHT22;4095;48.942;9.104;2023-07-13T07:58:35;24.20;92.50
8105;DHT22;4095;48.942;9.104;2023-07-13T08:01:07;24.30;91.90
8105;DHT22;4095;48.942;9.104;2023-07-13T08:03:32;24.40;92.60
8105;DHT22;4095;48.942;9.104;2023-07-13T08:05:58;24.50;91.40
8105;DHT22;4095;48.942;9.104;2023-07-13T08:08:24;24.60;91.90
8105;DHT22;4095;48.942;9.104;2023-07-13T08:10:50;24.80;91.80
8105;DHT22;4095;48.942;9.104;2023-07-13T08:13:15;24.80;91.30
8105;DHT22;4095;48.942;9.104;2023-07-13T08:15:41;24.80;91.50
8105;DHT22;4095;48.942;9.104;2023-07-13T08:18:06;24.90;91.20
8105;DHT22;4095;48.942;9.104;2023-07-13T08:20:37;25.00;89.60
8105;DHT22;4095;48.942;9.104;2023-07-13T08:23:03;25.10;88.90
8105;DHT22;4095;48.942;9.104;2023-07-13T08:25:29;25.10;86.70
8105;DHT22;4095;48.942;9.104;2023-07-13T08:27:54;25.10;88.40
8105;DHT22;4095;48.942;9.104;2023-07-13T08:30:20;25.30;87.00
8105;DHT22;4095;48.942;9.104;2023-07-13T08:32:47;25.30;85.70
8105;DHT22;4095;48.942;9.104;2023-07-13T08:35:12;25.30;87.60
8105;DHT22;4095;48.942;9.104;2023-07-13T08:37:39;25.40;88.40
8105;DHT22;4095;48.942;9.104;2023-07-13T08:40:05;25.60;89.20
8105;DHT22;4095;48.942;9.104;2023-07-13T08:42:44;25.70;87.70
8105;DHT22;4095;48.942;9.104;2023-07-13T08:45:24;25.80;85.60
8105;DHT22;4095;48.942;9.104;2023-07-13T08:48:01;25.90;86.90
8105;DHT22;4095;48.942;9.104;2023-07-13T08:50:34;25.80;82.70
8105;DHT22;4095;48.942;9.104;2023-07-13T08:53:02;25.70;82.70
8105;DHT22;4095;48.942;9.104;2023-07-13T08:55:33;25.60;81.70
8105;DHT22;4095;48.942;9.104;2023-07-13T08:58:10;25.70;81.40
8105;DHT22;4095;48.942;9.104;2023-07-13T09:03:24;25.80;82.80
8105;DHT22;4095;48.942;9.104;2023-07-13T09:05:54;25.90;83.20
8105;DHT22;4095;48.942;9.104;2023-07-13T09:08:49;26.00;81.30
8105;DHT22;4095;48.942;9.104;2023-07-13T09:11:56;26.10;85.20
8105;DHT22;4095;48.942;9.104;2023-07-13T09:14:33;26.30;80.70
8105;DHT22;4095;48.942;9.104;2023-07-13T09:17:04;26.40;83.30
8105;DHT22;4095;48.942;9.104;2023-07-13T09:19:31;26.70;85.20
8105;DHT22;4095;48.942;9.104;2023-07-13T09:21:59;26.90;82.30
8105;DHT22;4095;48.942;9.104;2023-07-13T09:24:35;26.90;82.70
8105;DHT22;4095;48.942;9.104;2023-07-13T09:27:08;26.90;79.60
8105;DHT22;4095;48.942;9.104;2023-07-13T09:29:36;26.90;81.60
8105;DHT22;4095;48.942;9.104;2023-07-13T09:32:05;27.00;82.90
8105;DHT22;4095;48.942;9.104;2023-07-13T09:34:33;27.10;81.30
8105;DHT22;4095;48.942;9.104;2023-07-13T09:36:59;27.10;81.50
8105;DHT22;4095;48.942;9.104;2023-07-13T09:39:28;27.10;79.50
8105;DHT22;4095;48.942;9.104;2023-07-13T09:42:18;27.10;80.20
8105;DHT22;4095;48.942;9.104;2023-07-13T09:50:12;27.10;82.90
8105;DHT22;4095;48.942;9.104;2023-07-13T09:52:46;27.10;81.10
8105;DHT22;4095;48.942;9.104;2023-07-13T09:55:34;27.20;79.00
8105;DHT22;4095;48.942;9.104;2023-07-13T09:58:21;27.30;80.70
8105;DHT22;4095;48.942;9.104;2023-07-13T10:01:00;27.30;79.10
8105;DHT22;4095;48.942;9.104;2023-07-13T10:03:30;27.50;81.20
8105;DHT22;4095;48.942;9.104;2023-07-13T10:06:11;27.70;78.60
8105;DHT22;4095;48.942;9.104;2023-07-13T10:08:37;27.80;81.00
8105;DHT22;4095;48.942;9.104;2023-07-13T10:11:23;28.00;80.60
8105;DHT22;4095;48.942;9.104;2023-07-13T10:13:56;28.20;80.00
8105;DHT22;4095;48.942;9.104;2023-07-13T10:16:25;28.40;79.20
8105;DHT22;4095;48.942;9.104;2023-07-13T10:18:57;28.50;77.00
8105;DHT22;4095;48.942;9.104;2023-07-13T10:21:31;28.70;76.30
8105;DHT22;4095;48.942;9.104;2023-07-13T10:24:04;28.70;77.00
8105;DHT22;4095;48.942;9.104;2023-07-13T10:26:33;28.50;75.70
8105;DHT22;4095;48.942;9.104;2023-07-13T10:29:05;28.30;77.00
8105;DHT22;4095;48.942;9.104;2023-07-13T10:31:35;28.30;76.40
8105;DHT22;4095;48.942;9.104;2023-07-13T10:34:02;28.50;75.70
8105;DHT22;4095;48.942;9.104;2023-07-13T10:36:32;28.70;77.20
8105;DHT22;4095;48.942;9.104;2023-07-13T10:39:02;28.80;74.70
8105;DHT22;4095;48.942;9.104;2023-07-13T10:41:30;28.90;75.60
8105;DHT22;4095;48.942;9.104;2023-07-13T10:43:58;29.00;73.30
8105;DHT22;4095;48.942;9.104;2023-07-13T10:46:27;29.10;71.50
8105;DHT22;4095;48.942;9.104;2023-07-13T10:48:59;29.00;73.10
8105;DHT22;4095;48.942;9.104;2023-07-13T10:51:27;29.00;72.90
8105;DHT22;4095;48.942;9.104;2023-07-13T10:56:42;29.00;70.90
8105;DHT22;4095;48.942;9.104;2023-07-13T10:59:27;29.10;71.30
8105;DHT22;4095;48.942;9.104;2023-07-13T11:02:00;29.20;72.10
8105;DHT22;4095;48.942;9.104;2023-07-13T11:04:46;29.20;71.90
8105;DHT22;4095;48.942;9.104;2023-07-13T11:07:23;29.40;70.30
8105;DHT22;4095;48.942;9.104;2023-07-13T11:09:51;29.40;70.90
8105;DHT22;4095;48.942;9.104;2023-07-13T11:25:30;30.20;69.40
8105;DHT22;4095;48.942;9.104;2023-07-13T11:30:59;30.30;68.50
8105;DHT22;4095;48.942;9.104;2023-07-13T11:33:49;30.50;67.50
8105;DHT22;4095;48.942;9.104;2023-07-13T11:36:17;30.60;67.60
8105;DHT22;4095;48.942;9.104;2023-07-13T11:41:26;30.70;65.40
8105;DHT22;4095;48.942;9.104;2023-07-13T11:43:56;30.70;65.00
8105;DHT22;4095;48.942;9.104;2023-07-13T11:46:28;30.60;67.00
8105;DHT22;4095;48.942;9.104;2023-07-13T11:48:54;30.70;64.90
8105;DHT22;4095;48.942;9.104;2023-07-13T11:51:30;30.80;66.80
8105;DHT22;4095;48.942;9.104;2023-07-13T11:54:03;30.90;68.20
8105;DHT22;4095;48.942;9.104;2023-07-13T11:56:29;31.00;68.90
8105;DHT22;4095;48.942;9.104;2023-07-13T11:58:57;31.00;65.60
8105;DHT22;4095;48.942;9.104;2023-07-13T12:01:31;31.00;66.10
8105;DHT22;4095;48.942;9.104;2023-07-13T12:04:01;31.10;67.20
8105;DHT22;4095;48.942;9.104;2023-07-13T12:06:35;31.20;64.40
8105;DHT22;4095;48.942;9.104;2023-07-13T12:09:14;31.20;64.20
8105;DHT22;4095;48.942;9.104;2023-07-13T12:11:43;31.10;62.50
8105;DHT22;4095;48.942;9.104;2023-07-13T12:14:16;31.00;63.50
8105;DHT22;4095;48.942;9.104;2023-07-13T12:16:43;31.10;65.30
8105;DHT22;4095;48.942;9.104;2023-07-13T12:19:21;31.20;64.60
8105;DHT22;4095;48.942;9.104;2023-07-13T12:21:47;31.30;62.80
8105;DHT22;4095;48.942;9.104;2023-07-13T12:24:18;31.40;63.70
8105;DHT22;4095;48.942;9.104;2023-07-13T12:26:49;31.50;63.20
8105;DHT22;4095;48.942;9.104;2023-07-13T12:29:17;31.50;61.60
8105;DHT22;4095;48.942;9.104;2023-07-13T12:31:48;31.60;59.70
8105;DHT22;4095;48.942;9.104;2023-07-13T12:34:17;31.70;60.00
8105;DHT22;4095;48.942;9.104;2023-07-13T12:36:58;31.70;60.60
8105;DHT22;4095;48.942;9.104;2023-07-13T12:39:46;31.70;60.40
8105;DHT22;4095;48.942;9.104;2023-07-13T12:42:26;31.70;61.30
8105;DHT22;4095;48.942;9.104;2023-07-13T12:44:57;31.60;60.00
8105;DHT22;4095;48.942;9.104;2023-07-13T12:47:24;31.60;60.50
8105;DHT22;4095;48.942;9.104;2023-07-13T12:49:59;31.40;59.60
8105;DHT22;4095;48.942;9.104;2023-07-13T12:52:32;31.40;60.70
8105;DHT22;4095;48.942;9.104;2023-07-13T12:55:07;31.30;61.10
8105;DHT22;4095;48.942;9.104;2023-07-13T12:58:02;31.30;61.00
8105;DHT22;4095;48.942;9.104;2023-07-13T13:00:35;31.30;61.70
8105;DHT22;4095;48.942;9.104;2023-07-13T13:05:43;31.00;59.40
8105;DHT22;4095;48.942;9.104;2023-07-13T13:08:13;30.80;62.00
8105;DHT22;4095;48.942;9.104;2023-07-13T13:10:39;30.70;59.50
8105;DHT22;4095;48.942;9.104;2023-07-13T13:13:04;30.60;59.60
8105;DHT22;4095;48.942;9.104;2023-07-13T13:15:30;30.40;59.70
8105;DHT22;4095;48.942;9.104;2023-07-13T13:17:56;30.30;62.30
8105;DHT22;4095;48.942;9.104;2023-07-13T13:20:24;30.20;60.80
8105;DHT22;4095;48.942;9.104;2023-07-13T13:22:51;30.10;63.00
8105;DHT22;4095;48.942;9.104;2023-07-13T13:25:17;30.10;62.20
8105;DHT22;4095;48.942;9.104;2023-07-13T13:27:44;30.10;63.30
8105;DHT22;4095;48.942;9.104;2023-07-13T13:30:15;30.10;63.80
8105;DHT22;4095;48.942;9.104;2023-07-13T13:32:47;30.00;63.10
8105;DHT22;4095;48.942;9.104;2023-07-13T13:35:18;30.00;63.70
8105;DHT22;4095;48.942;9.104;2023-07-13T13:37:44;30.00;63.70
8105;DHT22;4095;48.942;9.104;2023-07-13T13:40:18;30.00;63.30
8105;DHT22;4095;48.942;9.104;2023-07-13T13:42:44;29.90;65.00
8105;DHT22;4095;48.942;9.104;2023-07-13T13:45:10;29.60;60.80
8105;DHT22;4095;48.942;9.104;2023-07-13T13:47:38;29.40;61.40
8105;DHT22;4095;48.942;9.104;2023-07-13T13:50:22;29.30;63.10
8105;DHT22;4095;48.942;9.104;2023-07-13T13:52:48;29.30;64.40
8105;DHT22;4095;48.942;9.104;2023-07-13T13:55:15;29.20;62.80
8105;DHT22;4095;48.942;9.104;2023-07-13T13:57:41;29.10;65.70
8105;DHT22;4095;48.942;9.104;2023-07-13T14:00:09;29.10;65.60
8105;DHT22;4095;48.942;9.104;2023-07-13T14:02:44;29.20;64.40
8105;DHT22;4095;48.942;9.104;2023-07-13T14:05:15;29.20;64.20
8105;DHT22;4095;48.942;9.104;2023-07-13T14:07:41;29.20;62.90
8105;DHT22;4095;48.942;9.104;2023-07-13T14:10:15;29.20;61.90
8105;DHT22;4095;48.942;9.104;2023-07-13T14:12:47;29.10;62.00
8105;DHT22;4095;48.942;9.104;2023-07-13T14:15:24;29.00;60.90
8105;DHT22;4095;48.942;9.104;2023-07-13T14:17:50;28.90;61.50
8105;DHT22;4095;48.942;9.104;2023-07-13T14:20:17;28.90;63.70
8105;DHT22;4095;48.942;9.104;2023-07-13T14:22:44;28.90;64.20
8105;DHT22;4095;48.942;9.104;2023-07-13T14:25:16;28.90;67.00
8105;DHT22;4095;48.942;9.104;2023-07-13T14:27:43;28.80;63.10
8105;DHT22;4095;48.942;9.104;2023-07-13T14:30:20;28.70;63.90
8105;DHT22;4095;48.942;9.104;2023-07-13T14:32:46;28.60;64.10
8105;DHT22;4095;48.942;9.104;2023-07-13T14:35:18;28.50;63.90
8105;DHT22;4095;48.942;9.104;2023-07-13T14:37:45;28.50;65.60
8105;DHT22;4095;48.942;9.104;2023-07-13T14:40:30;28.50;66.30
8105;DHT22;4095;48.942;9.104;2023-07-13T14:42:56;28.50;64.60
8105;DHT22;4095;48.942;9.104;2023-07-13T14:45:21;28.60;65.60
8105;DHT22;4095;48.942;9.104;2023-07-13T14:47:47;28.50;63.90
8105;DHT22;4095;48.942;9.104;2023-07-13T14:50:18;28.60;67.40
8105;DHT22;4095;48.942;9.104;2023-07-13T14:52:46;28.60;66.10
8105;DHT22;4095;48.942;9.104;2023-07-13T14:55:17;28.60;64.00
8105;DHT22;4095;48.942;9.104;2023-07-13T14:57:43;28.50;64.20
8105;DHT22;4095;48.942;9.104;2023-07-13T15:00:20;28.50;65.50
8105;DHT22;4095;48.942;9.104;2023-07-13T15:02:54;28.40;65.50
8105;DHT22;4095;48.942;9.104;2023-07-13T15:05:30;28.40;65.80
8105;DHT22;4095;48.942;9.104;2023-07-13T15:08:02;28.30;66.00
8105;DHT22;4095;48.942;9.104;2023-07-13T15:10:30;28.30;66.80
8105;DHT22;4095;48.942;9.104;2023-07-13T15:13:20;28.40;65.90
8105;DHT22;4095;48.942;9.104;2023-07-13T15:15:50;28.30;64.70
8105;DHT22;4095;48.942;9.104;2023-07-13T15:18:20;28.30;65.90
8105;DHT22;4095;48.942;9.104;2023-07-13T15:20:47;28.10;65.20
8105;DHT22;4095;48.942;9.104;2023-07-13T15:23:14;28.10;65.10
8105;DHT22;4095;48.942;9.104;2023-07-13T15:25:42;28.10;66.40
8105;DHT22;4095;48.942;9.104;2023-07-13T15:28:09;28.20;66.60
8105;DHT22;4095;48.942;9.104;2023-07-13T15:30:45;28.20;67.60
8105;DHT22;4095;48.942;9.104;2023-07-13T15:33:28;28.20;66.40
8105;DHT22;4095;48.942;9.104;2023-07-13T15:35:55;28.30;66.00
8105;DHT22;4095;48.942;9.104;2023-07-13T15:38:27;28.20;67.50
8105;DHT22;4095;48.942;9.104;2023-07-13T15:40:53;28.20;68.90
8105;DHT22;4095;48.942;9.104;2023-07-13T15:43:19;28.30;67.40
8105;DHT22;4095;48.942;9.104;2023-07-13T15:45:46;28.30;67.70
8105;DHT22;4095;48.942;9.104;2023-07-13T15:48:18;28.30;66.90
8105;DHT22;4095;48.942;9.104;2023-07-13T15:50:52;28.20;65.40
8105;DHT22;4095;48.942;9.104;2023-07-13T15:53:38;28.20;68.00
8105;DHT22;4095;48.942;9.104;2023-07-13T15:58:43;28.20;67.20
8105;DHT22;4095;48.942;9.104;2023-07-13T16:01:12;28.20;67.80
8105;DHT22;4095;48.942;9.104;2023-07-13T16:03:39;28.20;69.80
8105;DHT22;4095;48.942;9.104;2023-07-13T16:06:32;28.20;67.60
8105;DHT22;4095;48.942;9.104;2023-07-13T16:08:57;28.20;65.30
8105;DHT22;4095;48.942;9.104;2023-07-13T16:11:25;28.10;69.70
8105;DHT22;4095;48.942;9.104;2023-07-13T16:13:53;28.10;69.00
8105;DHT22;4095;48.942;9.104;2023-07-13T16:16:28;28.10;66.50
8105;DHT22;4095;48.942;9.104;2023-07-13T16:18:55;28.00;68.30
8105;DHT22;4095;48.942;9.104;2023-07-13T16:21:27;28.00;65.60
8105;DHT22;4095;48.942;9.104;2023-07-13T16:23:54;27.90;66.20
8105;DHT22;4095;48.942;9.104;2023-07-13T16:28:52;27.90;68.20
8105;DHT22;4095;48.942;9.104;2023-07-13T16:31:34;27.90;70.20
8105;DHT22;4095;48.942;9.104;2023-07-13T16:34:00;27.90;69.90
8105;DHT22;4095;48.942;9.104;2023-07-13T16:36:27;27.90;68.30
8105;DHT22;4095;48.942;9.104;2023-07-13T16:38:54;27.90;68.20
8105;DHT22;4095;48.942;9.104;2023-07-13T16:41:20;27.80;67.00
8105;DHT22;4095;48.942;9.104;2023-07-13T16:43:45;27.70;68.20
8105;DHT22;4095;48.942;9.104;2023-07-13T16:46:12;27.80;68.10
8105;DHT22;4095;48.942;9.104;2023-07-13T16:48:40;27.80;69.20
8105;DHT22;4095;48.942;9.104;2023-07-13T16:51:06;27.70;67.50
8105;DHT22;4095;48.942;9.104;2023-07-13T16:53:32;27.70;68.60